sensor_id;sensor_type;location;lat;lon;timestamp;pressure;altitude;pressure_sealevel;temperature;humidity
17615;BME280;8926;49.720;6.576;2022-08-25T00:01:19;99721.63;;;23.40;45.47
17615;BME280;8926;49.720;6.576;2022-08-25T00:03:46;99729.00;;;23.38;45.07
17615;BME280;8926;49.720;6.576;2022-08-25T00:06:12;99717.84;;;23.34;45.38
17615;BME280;8926;49.720;6.576;2022-08-25T00:08:39;99728.31;;;23.28;45.75
17615;BME280;8926;49.720;6.576;2022-08-25T00:11:06;99711.84;;;23.24;45.45
17615;BME280;8926;49.720;6.576;2022-08-25T00:13:32;99727.31;;;23.21;46.32
17615;BME280;8926;49.720;6.576;2022-08-25T00:15:57;99729.31;;;23.19;44.94
17615;BME280;8926;49.720;6.576;2022-08-25T00:18:22;99730.34;;;23.10;45.85
17615;BME280;8926;49.720;6.576;2022-08-25T00:20:48;99731.03;;;23.04;45.77
17615;BME280;8926;49.720;6.576;2022-08-25T00:23:13;99730.34;;;23.01;46.05
17615;BME280;8926;49.720;6.576;2022-08-25T00:25:39;99736.69;;;23.00;46.02
17615;BME280;8926;49.720;6.576;2022-08-25T00:28:04;99739.50;;;22.99;45.80
17615;BME280;8926;49.720;6.576;2022-08-25T00:30:29;99737.66;;;22.91;46.32
17615;BME280;8926;49.720;6.576;2022-08-25T00:32:55;99730.66;;;22.90;45.80
17615;BME280;8926;49.720;6.576;2022-08-25T00:35:20;99730.66;;;22.90;46.63
17615;BME280;8926;49.720;6.576;2022-08-25T00:37:47;99732.19;;;22.85;47.10
17615;BME280;8926;49.720;6.576;2022-08-25T00:40:12;99724.03;;;22.78;47.51
17615;BME280;8926;49.720;6.576;2022-08-25T00:42:37;99732.31;;;22.75;47.25
17615;BME280;8926;49.720;6.576;2022-08-25T00:45:06;99737.97;;;22.72;47.17
17615;BME280;8926;49.720;6.576;2022-08-25T00:47:31;99743.63;;;22.69;47.92
17615;BME280;8926;49.720;6.576;2022-08-25T00:49:58;99747.28;;;22.68;46.91
17615;BME280;8926;49.720;6.576;2022-08-25T00:52:31;99748.44;;;22.65;46.76
17615;BME280;8926;49.720;6.576;2022-08-25T00:57:42;99747.59;;;22.65;47.00
17615;BME280;8926;49.720;6.576;2022-08-25T01:00:16;99740.28;;;22.67;47.65
17615;BME280;8926;49.720;6.576;2022-08-25T01:02:43;99737.47;;;22.68;46.59
17615;BME280;8926;49.720;6.576;2022-08-25T01:05:09;99743.44;;;22.62;47.05
17615;BME280;8926;49.720;6.576;2022-08-25T01:07:35;99744.63;;;22.60;47.39
17615;BME280;8926;49.720;6.576;2022-08-25T01:10:01;99735.97;;;22.58;47.14
17615;BME280;8926;49.720;6.576;2022-08-25T01:12:27;99747.78;;;22.55;47.00
17615;BME280;8926;49.720;6.576;2022-08-25T01:14:52;99744.44;;;22.53;47.58
17615;BME280;8926;49.720;6.576;2022-08-25T01:17:19;99746.25;;;22.53;47.56
17615;BME280;8926;49.720;6.576;2022-08-25T01:19:45;99747.25;;;22.52;47.55
17615;BME280;8926;49.720;6.576;2022-08-25T01:22:11;99747.25;;;22.52;47.97
17615;BME280;8926;49.720;6.576;2022-08-25T01:24:45;99742.78;;;22.52;47.63
17615;BME280;8926;49.720;6.576;2022-08-25T01:27:14;99750.09;;;22.50;47.08
17615;BME280;8926;49.720;6.576;2022-08-25T01:29:40;99759.91;;;22.50;47.96
17615;BME280;8926;49.720;6.576;2022-08-25T01:32:08;99744.56;;;22.44;47.95
17615;BME280;8926;49.720;6.576;2022-08-25T01:34:37;99752.22;;;22.39;48.23
17615;BME280;8926;49.720;6.576;2022-08-25T01:37:04;99762.53;;;22.42;48.00
17615;BME280;8926;49.720;6.576;2022-08-25T01:39:30;99770.38;;;22.43;47.81
17615;BME280;8926;49.720;6.576;2022-08-25T01:42:08;99765.88;;;22.44;47.78
17615;BME280;8926;49.720;6.576;2022-08-25T01:44:39;99759.19;;;22.40;48.37
17615;BME280;8926;49.720;6.576;2022-08-25T01:47:06;99764.84;;;22.37;48.91
17615;BME280;8926;49.720;6.576;2022-08-25T01:49:32;99764.84;;;22.37;48.25
17615;BME280;8926;49.720;6.576;2022-08-25T01:52:22;99763.19;;;22.35;48.71
17615;BME280;8926;49.720;6.576;2022-08-25T01:54:48;99767.81;;;22.25;48.56
17615;BME280;8926;49.720;6.576;2022-08-25T01:57:14;99763.13;;;22.19;48.78
17615;BME280;8926;49.720;6.576;2022-08-25T01:59:39;99760.13;;;22.14;48.41
17615;BME280;8926;49.720;6.576;2022-08-25T02:02:05;99759.28;;;22.14;48.66
17615;BME280;8926;49.720;6.576;2022-08-25T02:04:31;99757.44;;;22.06;49.71
17615;BME280;8926;49.720;6.576;2022-08-25T02:06:58;99773.06;;;22.01;49.39
17615;BME280;8926;49.720;6.576;2022-08-25T02:09:24;99778.66;;;21.98;49.27
17615;BME280;8926;49.720;6.576;2022-08-25T02:11:49;99772.34;;;21.99;49.62
17615;BME280;8926;49.720;6.576;2022-08-25T02:14:15;99760.09;;;22.06;48.17
17615;BME280;8926;49.720;6.576;2022-08-25T02:16:47;99758.59;;;22.04;49.63
17615;BME280;8926;49.720;6.576;2022-08-25T02:19:14;99768.41;;;22.03;48.75
17615;BME280;8926;49.720;6.576;2022-08-25T02:21:40;99758.03;;;22.00;49.44
17615;BME280;8926;49.720;6.576;2022-08-25T02:24:06;99757.53;;;21.96;49.74
17615;BME280;8926;49.720;6.576;2022-08-25T02:26:33;99759.31;;;21.88;50.07
17615;BME280;8926;49.720;6.576;2022-08-25T02:29:00;99763.63;;;21.81;49.77
17615;BME280;8926;49.720;6.576;2022-08-25T02:31:26;99751.63;;;21.77;50.25
17615;BME280;8926;49.720;6.576;2022-08-25T02:33:52;99750.56;;;21.70;50.53
17615;BME280;8926;49.720;6.576;2022-08-25T02:36:19;99755.91;;;21.70;50.66
17615;BME280;8926;49.720;6.576;2022-08-25T02:38:45;99747.25;;;21.67;50.61
17615;BME280;8926;49.720;6.576;2022-08-25T02:41:17;99750.88;;;21.66;49.33
17615;BME280;8926;49.720;6.576;2022-08-25T02:43:43;99748.53;;;21.63;50.48
17615;BME280;8926;49.720;6.576;2022-08-25T02:46:10;99755.16;;;21.59;50.02
17615;BME280;8926;49.720;6.576;2022-08-25T02:48:37;99754.66;;;21.56;50.37
17615;BME280;8926;49.720;6.576;2022-08-25T02:51:04;99753.50;;;21.58;51.09
17615;BME280;8926;49.720;6.576;2022-08-25T02:53:32;99762.81;;;21.62;49.66
17615;BME280;8926;49.720;6.576;2022-08-25T02:55:57;99755.16;;;21.59;50.72
17615;BME280;8926;49.720;6.576;2022-08-25T02:58:23;99755.84;;;21.61;49.62
17615;BME280;8926;49.720;6.576;2022-08-25T03:00:48;99752.47;;;21.51;51.13
17615;BME280;8926;49.720;6.576;2022-08-25T03:03:14;99743.81;;;21.49;50.79
17615;BME280;8926;49.720;6.576;2022-08-25T03:05:39;99754.75;;;21.46;51.29
17615;BME280;8926;49.720;6.576;2022-08-25T03:08:06;99743.06;;;21.39;51.62
17615;BME280;8926;49.720;6.576;2022-08-25T03:10:32;99742.25;;;21.39;51.58
17615;BME280;8926;49.720;6.576;2022-08-25T03:12:57;99745.06;;;21.37;52.00
17615;BME280;8926;49.720;6.576;2022-08-25T03:15:22;99737.69;;;21.31;51.32
17615;BME280;8926;49.720;6.576;2022-08-25T03:17:50;99745.47;;;21.24;51.54
17615;BME280;8926;49.720;6.576;2022-08-25T03:20:15;99741.59;;;21.19;52.17
17615;BME280;8926;49.720;6.576;2022-08-25T03:22:41;99747.50;;;21.13;52.64
17615;BME280;8926;49.720;6.576;2022-08-25T03:25:07;99749.78;;;21.08;52.02
17615;BME280;8926;49.720;6.576;2022-08-25T03:27:51;99756.63;;;21.10;52.36
17615;BME280;8926;49.720;6.576;2022-08-25T03:30:17;99753.34;;;21.16;51.66
17615;BME280;8926;49.720;6.576;2022-08-25T03:32:42;99751.53;;;21.17;52.54
17615;BME280;8926;49.720;6.576;2022-08-25T03:35:08;99749.47;;;21.11;52.48
17615;BME280;8926;49.720;6.576;2022-08-25T03:37:35;99751.47;;;21.09;52.93
17615;BME280;8926;49.720;6.576;2022-08-25T03:40:03;99752.09;;;21.03;52.68
17615;BME280;8926;49.720;6.576;2022-08-25T03:42:29;99757.41;;;21.03;52.51
17615;BME280;8926;49.720;6.576;2022-08-25T03:44:54;99753.53;;;20.97;52.79
17615;BME280;8926;49.720;6.576;2022-08-25T03:47:20;99754.00;;;20.92;52.98
17615;BME280;8926;49.720;6.576;2022-08-25T03:49:45;99752.25;;;20.83;53.09
17615;BME280;8926;49.720;6.576;2022-08-25T03:52:10;99748.91;;;20.81;52.40
17615;BME280;8926;49.720;6.576;2022-08-25T03:54:36;99745.25;;;20.82;53.49
17615;BME280;8926;49.720;6.576;2022-08-25T03:57:01;99742.25;;;20.77;53.21
17615;BME280;8926;49.720;6.576;2022-08-25T03:59:26;99737.78;;;20.78;53.01
17615;BME280;8926;49.720;6.576;2022-08-25T04:01:52;99745.75;;;20.78;52.12
17615;BME280;8926;49.720;6.576;2022-08-25T04:04:18;99741.19;;;20.70;54.02
17615;BME280;8926;49.720;6.576;2022-08-25T04:06:44;99745.41;;;20.63;54.14
17615;BME280;8926;49.720;6.576;2022-08-25T04:09:10;99742.06;;;20.61;52.84
17615;BME280;8926;49.720;6.576;2022-08-25T04:11:36;99741.00;;;20.54;53.73
17615;BME280;8926;49.720;6.576;2022-08-25T04:14:01;99743.28;;;20.49;53.82
17615;BME280;8926;49.720;6.576;2022-08-25T04:16:29;99743.00;;;20.52;54.57
17615;BME280;8926;49.720;6.576;2022-08-25T04:18:57;99740.72;;;20.57;53.40
17615;BME280;8926;49.720;6.576;2022-08-25T04:21:24;99746.56;;;20.60;54.48
17615;BME280;8926;49.720;6.576;2022-08-25T04:23:50;99735.41;;;20.57;54.15
17615;BME280;8926;49.720;6.576;2022-08-25T04:26:29;99739.03;;;20.56;54.64
17615;BME280;8926;49.720;6.576;2022-08-25T04:28:57;99741.19;;;20.52;54.87
17615;BME280;8926;49.720;6.576;2022-08-25T04:31:23;99734.34;;;20.50;54.56
17615;BME280;8926;49.720;6.576;2022-08-25T04:33:49;99738.34;;;20.54;54.23
17615;BME280;8926;49.720;6.576;2022-08-25T04:36:16;99751.31;;;20.57;54.52
17615;BME280;8926;49.720;6.576;2022-08-25T04:38:43;99739.03;;;20.56;54.69
17615;BME280;8926;49.720;6.576;2022-08-25T04:41:10;99740.72;;;20.57;54.10
17615;BME280;8926;49.720;6.576;2022-08-25T04:43:37;99731.06;;;20.56;53.88
17615;BME280;8926;49.720;6.576;2022-08-25T04:46:05;99728.72;;;20.53;54.20
17615;BME280;8926;49.720;6.576;2022-08-25T04:48:31;99722.38;;;20.46;54.52
17615;BME280;8926;49.720;6.576;2022-08-25T04:50:57;99725.16;;;20.44;54.62
17615;BME280;8926;49.720;6.576;2022-08-25T04:53:22;99727.66;;;20.46;53.88
17615;BME280;8926;49.720;6.576;2022-08-25T04:55:48;99726.38;;;20.50;54.87
17615;BME280;8926;49.720;6.576;2022-08-25T04:58:14;99719.41;;;20.49;54.50
17615;BME280;8926;49.720;6.576;2022-08-25T05:00:40;99722.06;;;20.49;54.88
17615;BME280;8926;49.720;6.576;2022-08-25T05:03:06;99715.84;;;20.58;54.19
17615;BME280;8926;49.720;6.576;2022-08-25T05:05:35;99719.84;;;20.62;54.11
17615;BME280;8926;49.720;6.576;2022-08-25T05:08:01;99710.47;;;20.67;53.36
17615;BME280;8926;49.720;6.576;2022-08-25T05:10:27;99717.19;;;20.62;54.25
17615;BME280;8926;49.720;6.576;2022-08-25T05:12:52;99718.56;;;20.66;54.18
17615;BME280;8926;49.720;6.576;2022-08-25T05:15:17;99708.47;;;20.87;53.93
17615;BME280;8926;49.720;6.576;2022-08-25T05:18:01;99709.59;;;21.03;53.48
17615;BME280;8926;49.720;6.576;2022-08-25T05:20:27;99704.72;;;21.42;53.01
17615;BME280;8926;49.720;6.576;2022-08-25T05:22:52;99694.34;;;22.65;50.54
17615;BME280;8926;49.720;6.576;2022-08-25T05:25:17;99676.63;;;23.61;48.51
17615;BME280;8926;49.720;6.576;2022-08-25T05:27:43;99681.53;;;24.43;47.12
17615;BME280;8926;49.720;6.576;2022-08-25T05:30:09;99673.81;;;24.93;45.83
17615;BME280;8926;49.720;6.576;2022-08-25T05:32:35;99674.81;;;25.59;44.97
17615;BME280;8926;49.720;6.576;2022-08-25T05:35:00;99665.69;;;26.19;44.64
17615;BME280;8926;49.720;6.576;2022-08-25T05:37:26;99662.53;;;26.73;44.28
17615;BME280;8926;49.720;6.576;2022-08-25T05:39:51;99663.19;;;27.31;42.27
17615;BME280;8926;49.720;6.576;2022-08-25T05:42:16;99656.19;;;27.64;40.96
17615;BME280;8926;49.720;6.576;2022-08-25T05:44:42;99658.88;;;28.19;42.13
17615;BME280;8926;49.720;6.576;2022-08-25T05:47:07;99656.69;;;28.68;39.22
17615;BME280;8926;49.720;6.576;2022-08-25T05:49:32;99654.25;;;29.07;38.77
17615;BME280;8926;49.720;6.576;2022-08-25T05:51:57;99658.72;;;29.52;39.70
17615;BME280;8926;49.720;6.576;2022-08-25T05:54:23;99651.81;;;29.69;38.39
17615;BME280;8926;49.720;6.576;2022-08-25T05:56:49;99638.53;;;29.75;36.61
17615;BME280;8926;49.720;6.576;2022-08-25T05:59:15;99649.44;;;29.22;36.66
17615;BME280;8926;49.720;6.576;2022-08-25T06:01:40;99643.25;;;28.49;37.52
17615;BME280;8926;49.720;6.576;2022-08-25T06:04:24;99651.06;;;28.24;38.52
17615;BME280;8926;49.720;6.576;2022-08-25T06:06:49;99656.47;;;28.30;37.84
17615;BME280;8926;49.720;6.576;2022-08-25T06:09:18;99654.81;;;28.43;37.55
17615;BME280;8926;49.720;6.576;2022-08-25T06:11:43;99651.91;;;28.37;37.77
17615;BME280;8926;49.720;6.576;2022-08-25T06:14:09;99656.38;;;28.17;38.35
17615;BME280;8926;49.720;6.576;2022-08-25T06:16:35;99655.44;;;27.84;38.44
17615;BME280;8926;49.720;6.576;2022-08-25T06:19:00;99651.84;;;27.63;39.16
17615;BME280;8926;49.720;6.576;2022-08-25T06:21:25;99647.09;;;27.65;39.21
17615;BME280;8926;49.720;6.576;2022-08-25T06:23:51;99651.22;;;27.61;39.04
17615;BME280;8926;49.720;6.576;2022-08-25T06:26:16;99654.09;;;27.60;39.35
17615;BME280;8926;49.720;6.576;2022-08-25T06:28:42;99659.81;;;27.50;39.32
17615;BME280;8926;49.720;6.576;2022-08-25T06:31:07;99656.56;;;27.61;39.15
17615;BME280;8926;49.720;6.576;2022-08-25T06:33:32;99651.91;;;27.77;39.24
17615;BME280;8926;49.720;6.576;2022-08-25T06:35:58;99651.31;;;27.88;38.79
17615;BME280;8926;49.720;6.576;2022-08-25T06:38:24;99655.28;;;27.92;39.12
17615;BME280;8926;49.720;6.576;2022-08-25T06:40:50;99653.84;;;27.96;38.31
17615;BME280;8926;49.720;6.576;2022-08-25T06:43:19;99653.25;;;28.00;38.33
17615;BME280;8926;49.720;6.576;2022-08-25T06:45:45;99651.81;;;28.11;38.44
17615;BME280;8926;49.720;6.576;2022-08-25T06:48:10;99652.28;;;28.21;37.89
17615;BME280;8926;49.720;6.576;2022-08-25T06:50:39;99651.91;;;28.37;37.41
17615;BME280;8926;49.720;6.576;2022-08-25T06:53:05;99651.13;;;28.57;37.16
17615;BME280;8926;49.720;6.576;2022-08-25T06:55:32;99652.34;;;28.67;37.15
17615;BME280;8926;49.720;6.576;2022-08-25T06:57:59;99646.97;;;28.67;37.43
17615;BME280;8926;49.720;6.576;2022-08-25T07:00:24;99654.03;;;28.88;36.68
17615;BME280;8926;49.720;6.576;2022-08-25T07:02:49;99651.97;;;29.03;36.81
17615;BME280;8926;49.720;6.576;2022-08-25T07:05:15;99652.13;;;29.22;36.57
17615;BME280;8926;49.720;6.576;2022-08-25T07:07:41;99643.59;;;29.51;35.98
17615;BME280;8926;49.720;6.576;2022-08-25T07:10:08;99645.66;;;29.56;35.02
17615;BME280;8926;49.720;6.576;2022-08-25T07:12:34;99641.84;;;29.77;35.08
17615;BME280;8926;49.720;6.576;2022-08-25T07:14:59;99645.16;;;29.79;34.86
17615;BME280;8926;49.720;6.576;2022-08-25T07:17:24;99647.66;;;29.74;35.32
17615;BME280;8926;49.720;6.576;2022-08-25T07:19:51;99652.59;;;29.83;34.90
17615;BME280;8926;49.720;6.576;2022-08-25T07:22:17;99649.00;;;29.96;35.36
17615;BME280;8926;49.720;6.576;2022-08-25T07:24:42;99648.78;;;30.11;34.70
17615;BME280;8926;49.720;6.576;2022-08-25T07:27:07;99646.91;;;30.11;34.17
17615;BME280;8926;49.720;6.576;2022-08-25T07:29:33;99638.66;;;30.37;34.11
17615;BME280;8926;49.720;6.576;2022-08-25T07:32:03;99646.03;;;30.49;33.84
17615;BME280;8926;49.720;6.576;2022-08-25T07:34:29;99649.72;;;30.61;34.03
17615;BME280;8926;49.720;6.576;2022-08-25T07:37:13;99647.63;;;30.63;33.43
17615;BME280;8926;49.720;6.576;2022-08-25T07:39:39;99635.66;;;30.77;33.13
17615;BME280;8926;49.720;6.576;2022-08-25T07:42:04;99640.22;;;31.01;33.11
17615;BME280;8926;49.720;6.576;2022-08-25T07:44:30;99636.31;;;30.97;32.68
17615;BME280;8926;49.720;6.576;2022-08-25T07:46:55;99637.69;;;31.07;32.63
17615;BME280;8926;49.720;6.576;2022-08-25T07:49:24;99641.81;;;31.09;33.30
17615;BME280;8926;49.720;6.576;2022-08-25T07:51:53;99628.13;;;31.29;32.96
17615;BME280;8926;49.720;6.576;2022-08-25T07:54:19;99630.22;;;31.45;32.63
17615;BME280;8926;49.720;6.576;2022-08-25T07:56:44;99617.34;;;31.65;31.82
17615;BME280;8926;49.720;6.576;2022-08-25T07:59:09;99615.75;;;31.76;32.38
17615;BME280;8926;49.720;6.576;2022-08-25T08:01:35;99617.28;;;32.02;31.73
17615;BME280;8926;49.720;6.576;2022-08-25T08:04:02;99611.72;;;31.97;32.17
17615;BME280;8926;49.720;6.576;2022-08-25T08:06:27;99612.22;;;31.94;31.81
17615;BME280;8926;49.720;6.576;2022-08-25T08:08:53;99612.28;;;32.17;31.65
17615;BME280;8926;49.720;6.576;2022-08-25T08:11:23;99609.72;;;32.22;31.73
17615;BME280;8926;49.720;6.576;2022-08-25T08:13:51;99606.38;;;32.50;31.46
17615;BME280;8926;49.720;6.576;2022-08-25T08:16:18;99609.38;;;32.72;31.29
17615;BME280;8926;49.720;6.576;2022-08-25T08:18:45;99608.22;;;32.91;31.18
17615;BME280;8926;49.720;6.576;2022-08-25T08:21:14;99601.88;;;32.97;31.24
17615;BME280;8926;49.720;6.576;2022-08-25T08:23:40;99598.06;;;33.22;31.60
17615;BME280;8926;49.720;6.576;2022-08-25T08:26:05;99595.25;;;33.17;30.84
17615;BME280;8926;49.720;6.576;2022-08-25T08:28:31;99588.66;;;33.13;31.44
17615;BME280;8926;49.720;6.576;2022-08-25T08:30:56;99584.53;;;33.10;31.64
17615;BME280;8926;49.720;6.576;2022-08-25T08:33:22;99592.31;;;33.18;31.62
17615;BME280;8926;49.720;6.576;2022-08-25T08:35:57;99591.72;;;33.28;31.77
17615;BME280;8926;49.720;6.576;2022-08-25T08:38:22;99581.00;;;33.33;31.11
17615;BME280;8926;49.720;6.576;2022-08-25T08:41:02;99568.03;;;33.35;31.40
17615;BME280;8926;49.720;6.576;2022-08-25T08:43:53;99569.19;;;33.51;31.25
17615;BME280;8926;49.720;6.576;2022-08-25T08:46:21;99582.88;;;33.44;31.39
17615;BME280;8926;49.720;6.576;2022-08-25T08:49:04;99571.56;;;33.47;30.99
17615;BME280;8926;49.720;6.576;2022-08-25T08:51:43;99571.84;;;33.62;30.95
17615;BME280;8926;49.720;6.576;2022-08-25T08:54:16;99572.72;;;33.80;31.51
17615;BME280;8926;49.720;6.576;2022-08-25T08:56:46;99569.84;;;33.98;31.33
17615;BME280;8926;49.720;6.576;2022-08-25T08:59:16;99562.28;;;34.00;31.12
17615;BME280;8926;49.720;6.576;2022-08-25T09:01:47;99569.16;;;33.91;31.21
17615;BME280;8926;49.720;6.576;2022-08-25T09:04:18;99566.16;;;34.04;31.08
17615;BME280;8926;49.720;6.576;2022-08-25T09:06:46;99556.63;;;34.01;31.31
17615;BME280;8926;49.720;6.576;2022-08-25T09:09:17;99561.47;;;33.99;31.67
17615;BME280;8926;49.720;6.576;2022-08-25T09:30:49;99547.19;;;34.71;30.77
17615;BME280;8926;49.720;6.576;2022-08-25T09:33:20;99553.34;;;34.83;30.92
17615;BME280;8926;49.720;6.576;2022-08-25T09:35:47;99538.69;;;34.84;30.38
17615;BME280;8926;49.720;6.576;2022-08-25T09:38:13;99540.44;;;34.90;29.87
17615;BME280;8926;49.720;6.576;2022-08-25T09:40:42;99536.13;;;34.94;30.31
17615;BME280;8926;49.720;6.576;2022-08-25T09:43:39;99532.84;;;34.92;29.86
17615;BME280;8926;49.720;6.576;2022-08-25T09:46:12;99527.06;;;35.06;30.43
17615;BME280;8926;49.720;6.576;2022-08-25T09:48:48;99520.91;;;35.15;29.67
17615;BME280;8926;49.720;6.576;2022-08-25T09:51:30;99512.78;;;35.37;29.91
17615;BME280;8926;49.720;6.576;2022-08-25T09:54:01;99521.63;;;35.49;29.89
17615;BME280;8926;49.720;6.576;2022-08-25T09:56:29;99516.84;;;35.61;29.27
17615;BME280;8926;49.720;6.576;2022-08-25T10:01:55;99501.38;;;35.89;28.61
17615;BME280;8926;49.720;6.576;2022-08-25T10:04:33;99507.59;;;36.11;28.67
17615;BME280;8926;49.720;6.576;2022-08-25T10:07:02;99504.56;;;36.45;29.03
17615;BME280;8926;49.720;6.576;2022-08-25T10:09:40;99503.44;;;36.35;27.99
17615;BME280;8926;49.720;6.576;2022-08-25T10:12:18;99504.78;;;36.33;28.28
17615;BME280;8926;49.720;6.576;2022-08-25T10:14:50;99500.69;;;36.30;28.24
17615;BME280;8926;49.720;6.576;2022-08-25T10:17:28;99500.78;;;36.46;28.07
17615;BME280;8926;49.720;6.576;2022-08-25T10:20:15;99496.19;;;36.51;27.76
17615;BME280;8926;49.720;6.576;2022-08-25T10:22:42;99484.00;;;36.59;28.50
17615;BME280;8926;49.720;6.576;2022-08-25T10:25:11;99487.75;;;36.53;27.77
17615;BME280;8926;49.720;6.576;2022-08-25T10:28:03;99478.38;;;36.33;27.29
17615;BME280;8926;49.720;6.576;2022-08-25T10:33:48;99467.03;;;36.47;27.56
17615;BME280;8926;49.720;6.576;2022-08-25T10:37:04;99480.78;;;36.72;27.41
17615;BME280;8926;49.720;6.576;2022-08-25T10:39:22;99470.38;;;36.59;27.36
17615;BME280;8926;49.720;6.576;2022-08-25T10:42:07;99454.69;;;36.76;27.28
17615;BME280;8926;49.720;6.576;2022-08-25T10:45:01;99456.91;;;36.79;26.74
17615;BME280;8926;49.720;6.576;2022-08-25T10:54:11;99440.59;;;36.84;26.59
17615;BME280;8926;49.720;6.576;2022-08-25T10:56:40;99438.28;;;36.61;26.93
17615;BME280;8926;49.720;6.576;2022-08-25T10:59:29;99444.81;;;36.70;27.81
17615;BME280;8926;49.720;6.576;2022-08-25T11:04:46;99431.81;;;36.77;26.94
17615;BME280;8926;49.720;6.576;2022-08-25T11:07:36;99438.34;;;36.76;25.41
17615;BME280;8926;49.720;6.576;2022-08-25T11:10:09;99429.16;;;36.40;26.38
17615;BME280;8926;49.720;6.576;2022-08-25T11:12:41;99425.72;;;36.55;25.72
17615;BME280;8926;49.720;6.576;2022-08-25T11:15:21;99415.22;;;36.79;26.39
17615;BME280;8926;49.720;6.576;2022-08-25T11:18:01;99412.16;;;36.23;26.24
17615;BME280;8926;49.720;6.576;2022-08-25T11:20:31;99424.09;;;35.53;26.84
17615;BME280;8926;49.720;6.576;2022-08-25T11:23:10;99409.59;;;35.74;26.37
17615;BME280;8926;49.720;6.576;2022-08-25T11:25:44;99412.25;;;35.96;25.85
17615;BME280;8926;49.720;6.576;2022-08-25T11:31:01;99401.16;;;36.02;25.99
17615;BME280;8926;49.720;6.576;2022-08-25T11:33:28;99394.94;;;36.12;25.83
17615;BME280;8926;49.720;6.576;2022-08-25T11:38:59;99393.38;;;36.21;25.66
17615;BME280;8926;49.720;6.576;2022-08-25T11:44:18;99391.34;;;35.69;25.78
17615;BME280;8926;49.720;6.576;2022-08-25T11:57:48;99386.50;;;36.09;25.27
17615;BME280;8926;49.720;6.576;2022-08-25T12:02:58;99380.13;;;35.93;24.76
17615;BME280;8926;49.720;6.576;2022-08-25T12:07:59;99372.91;;;36.09;24.73
17615;BME280;8926;49.720;6.576;2022-08-25T12:10:53;99372.69;;;36.20;24.66
17615;BME280;8926;49.720;6.576;2022-08-25T12:13:46;99373.88;;;36.29;24.90
17615;BME280;8926;49.720;6.576;2022-08-25T12:27:44;99360.47;;;35.81;24.18
17615;BME280;8926;49.720;6.576;2022-08-25T12:30:32;99367.91;;;35.58;24.36
17615;BME280;8926;49.720;6.576;2022-08-25T12:36:09;99366.31;;;35.67;24.93
17615;BME280;8926;49.720;6.576;2022-08-25T12:38:48;99353.16;;;35.81;24.42
17615;BME280;8926;49.720;6.576;2022-08-25T12:41:20;99351.25;;;35.82;24.47
17615;BME280;8926;49.720;6.576;2022-08-25T12:43:48;99347.16;;;35.79;24.27
17615;BME280;8926;49.720;6.576;2022-08-25T12:57:02;99341.34;;;35.38;24.01
17615;BME280;8926;49.720;6.576;2022-08-25T12:59:43;99331.81;;;35.36;23.68
17615;BME280;8926;49.720;6.576;2022-08-25T13:02:39;99338.31;;;35.30;23.87
17615;BME280;8926;49.720;6.576;2022-08-25T13:06:26;99333.34;;;35.27;24.12
17615;BME280;8926;49.720;6.576;2022-08-25T13:08:39;99331.09;;;35.19;25.28
17615;BME280;8926;49.720;6.576;2022-08-25T13:11:20;99325.59;;;35.14;25.07
17615;BME280;8926;49.720;6.576;2022-08-25T13:16:22;99335.56;;;35.03;24.50
17615;BME280;8926;49.720;6.576;2022-08-25T13:18:49;99327.63;;;34.96;25.09
17615;BME280;8926;49.720;6.576;2022-08-25T13:21:22;99324.44;;;35.04;25.07
17615;BME280;8926;49.720;6.576;2022-08-25T13:23:51;99319.59;;;35.07;25.59
17615;BME280;8926;49.720;6.576;2022-08-25T13:26:23;99316.25;;;34.99;25.23
17615;BME280;8926;49.720;6.576;2022-08-25T13:28:58;99313.03;;;35.02;25.12
17615;BME280;8926;49.720;6.576;2022-08-25T13:31:25;99308.41;;;35.03;25.06
17615;BME280;8926;49.720;6.576;2022-08-25T13:33:59;99307.53;;;34.97;24.53
17615;BME280;8926;49.720;6.576;2022-08-25T13:36:27;99305.28;;;34.89;25.35
17615;BME280;8926;49.720;6.576;2022-08-25T13:39:18;99304.16;;;34.85;24.67
17615;BME280;8926;49.720;6.576;2022-08-25T13:41:52;99307.91;;;34.79;25.30
17615;BME280;8926;49.720;6.576;2022-08-25T13:44:20;99306.88;;;34.63;24.70
17615;BME280;8926;49.720;6.576;2022-08-25T13:46:46;99297.03;;;34.57;25.26
17615;BME280;8926;49.720;6.576;2022-08-25T13:49:24;99301.25;;;34.70;25.00
17615;BME280;8926;49.720;6.576;2022-08-25T13:51:52;99296.97;;;34.74;25.00
17615;BME280;8926;49.720;6.576;2022-08-25T13:54:41;99294.19;;;34.69;25.28
17615;BME280;8926;49.720;6.576;2022-08-25T13:57:15;99282.81;;;34.72;24.50
17615;BME280;8926;49.720;6.576;2022-08-25T13:59:42;99283.94;;;34.76;25.12
17615;BME280;8926;49.720;6.576;2022-08-25T14:02:10;99290.53;;;34.80;24.82
17615;BME280;8926;49.720;6.576;2022-08-25T14:09:58;99282.09;;;34.55;24.64
17615;BME280;8926;49.720;6.576;2022-08-25T14:12:45;99271.25;;;34.55;24.84
17615;BME280;8926;49.720;6.576;2022-08-25T14:17:48;99269.19;;;34.67;25.26
17615;BME280;8926;49.720;6.576;2022-08-25T14:20:25;99267.53;;;34.66;25.18
17615;BME280;8926;49.720;6.576;2022-08-25T14:22:56;99274.09;;;34.70;24.92
17615;BME280;8926;49.720;6.576;2022-08-25T14:25:22;99264.88;;;34.71;24.71
17615;BME280;8926;49.720;6.576;2022-08-25T14:28:00;99257.06;;;34.75;24.86
17615;BME280;8926;49.720;6.576;2022-08-25T14:30:27;99263.41;;;34.80;24.40
17615;BME280;8926;49.720;6.576;2022-08-25T14:32:52;99261.50;;;34.81;24.09
17615;BME280;8926;49.720;6.576;2022-08-25T14:35:18;99252.41;;;34.70;24.86
17615;BME280;8926;49.720;6.576;2022-08-25T14:37:44;99258.91;;;34.69;24.60
17615;BME280;8926;49.720;6.576;2022-08-25T14:40:10;99268.16;;;34.73;23.92
17615;BME280;8926;49.720;6.576;2022-08-25T14:42:44;99267.84;;;34.69;25.05
17615;BME280;8926;49.720;6.576;2022-08-25T14:45:10;99269.69;;;34.64;24.68
17615;BME280;8926;49.720;6.576;2022-08-25T14:47:35;99263.13;;;34.60;24.72
17615;BME280;8926;49.720;6.576;2022-08-25T14:50:00;99254.44;;;34.58;24.55
17615;BME280;8926;49.720;6.576;2022-08-25T14:52:28;99257.50;;;34.66;24.66
17615;BME280;8926;49.720;6.576;2022-08-25T14:54:54;99250.25;;;34.72;25.28
17615;BME280;8926;49.720;6.576;2022-08-25T14:57:21;99249.47;;;34.77;25.07
17615;BME280;8926;49.720;6.576;2022-08-25T14:59:47;99247.59;;;34.77;24.65